^^
Datos históricos de la estación: Murcia-Puente Tocinos
Diario Informe para Junio 19, 2021 Unidades:  Ingés    Métrico   Ambas
Diario Semanal Mensual Anual
  Máxima: Mínima: Promedio:
Temperatura: 79.3 °F 70.3 °F 73.8 °F
Punto de rocio: 67.5 °F 65.1 °F 66 °F
Humedad: 88% 64.9% 77%
Velocidad viento: 9.2mph 2mph 4.8mph
Racha viento: 18mph - -
Viento- - ESE
Presión: 29.9 in 29.8 in -
Precipitación: 0.02 in    
 
 
Tabla de datos para Junio 19, 2021
Hora Temperatura Punto de rocio Presión Viento Velocidad viento Racha viento Humedad Intensidad lluvia(por hora) Nubes
00:04 72.3 °F 66.2 °F 29.9 in NE 3.6 mph 7 mph 81% 0 in
00:09 72.3 °F 66.2 °F 29.9 in NE 3.6 mph 7 mph 81% 0 in
00:14 72.3 °F 66.2 °F 29.9 in NE 3.6 mph 5.9 mph 81% 0 in
00:19 72.3 °F 66.2 °F 29.9 in NE 3.6 mph 6 mph 81% 0 in
00:24 72.3 °F 66.2 °F 29.9 in NNE 3.6 mph 6 mph 81% 0 in
00:29 72.3 °F 66.2 °F 29.9 in ENE 3.2 mph 5.8 mph 81% 0 in
00:34 72.3 °F 66.2 °F 29.9 in NE 2.9 mph 6 mph 81% 0 in
00:39 72.3 °F 66.2 °F 29.9 in NNO 2.9 mph 6.4 mph 81% 0 in
00:44 72.3 °F 66.2 °F 29.9 in NNO 2.9 mph 6.9 mph 81% 0 in
00:49 72.3 °F 66.2 °F 29.9 in ONO 3.3 mph 7 mph 81.2% 0 in
00:54 72.3 °F 66.4 °F 29.9 in Este 3.6 mph 6.9 mph 81.6% 0 in
00:59 72.1 °F 66.2 °F 29.9 in NE 3.3 mph 7 mph 81.4% 0 in
01:04 72.1 °F 66.4 °F 29.9 in SE 3.1 mph 6 mph 82% 0 in
01:09 72.3 °F 66.2 °F 29.9 in ESE 3 mph 5 mph 81.2% 0 in
01:14 72.1 °F 66 °F 29.9 in Este 2.9 mph 4.6 mph 81% 0 in
01:19 72.1 °F 66 °F 29.9 in NE 2.9 mph 5.2 mph 81.3% 0 in
01:24 72.1 °F 66.2 °F 29.9 in NE 2.9 mph 7.4 mph 81.9% 0 in
01:29 72 °F 66.2 °F 29.9 in NE 3.5 mph 7 mph 82% 0 in
01:34 72 °F 66.2 °F 29.9 in NE 4 mph 7 mph 82% 0 in
01:39 72 °F 66 °F 29.9 in NE 4 mph 7 mph 82% 0 in
01:44 71.8 °F 66 °F 29.9 in NE 4 mph 6 mph 82% 0 in
01:49 71.8 °F 66 °F 29.9 in NE 3.8 mph 6 mph 82% 0 in
01:51 71.8 °F 66 °F 29.9 in North 3.6 mph 5.9 mph 82% 0 in
01:59 71.6 °F 65.8 °F 29.9 in NNE 3.6 mph 6.2 mph 82% 0 in
02:04 71.4 °F 65.7 °F 29.9 in NNE 3.6 mph 6 mph 82% 0 in
02:09 71.4 °F 65.8 °F 29.9 in NE 3.6 mph 7.4 mph 82.6% 0 in
02:14 71.4 °F 66 °F 29.9 in NNE 3.6 mph 7 mph 83% 0 in
02:19 71.4 °F 66 °F 29.9 in NNE 3.6 mph 6 mph 83% 0 in
02:24 71.4 °F 66 °F 29.9 in NNE 3.6 mph 5 mph 83% 0 in
02:29 71.2 °F 65.8 °F 29.9 in NNE 3.2 mph 5 mph 83% 0 in
02:34 71.2 °F 65.8 °F 29.9 in North 2.9 mph 5 mph 83% 0 in
02:39 71.2 °F 65.8 °F 29.9 in NO 2.9 mph 5.4 mph 83% 0 in
02:44 71.2 °F 65.8 °F 29.9 in NO 2.9 mph 6 mph 83.1% 0 in
02:49 71.1 °F 66 °F 29.9 in ONO 3.3 mph 6 mph 84% 0 in
02:54 71.1 °F 66 °F 29.9 in NO 3.6 mph 6 mph 84% 0 in
02:59 71.1 °F 66 °F 29.9 in NO 3.1 mph 5 mph 84% 0 in
03:04 71.1 °F 66.2 °F 29.9 in NO 2.9 mph 5 mph 84.5% 0 in
03:09 71.1 °F 66.4 °F 29.9 in NO 3 mph 5.2 mph 85% 0 in
03:14 71.1 °F 66.4 °F 29.9 in NNO 3.1 mph 5.9 mph 85% 0 in
03:19 70.9 °F 66.2 °F 29.9 in NNO 3 mph 6 mph 85% 0 in
03:24 70.9 °F 66 °F 29.9 in NO 2.9 mph 5 mph 85% 0 in
03:29 70.9 °F 66 °F 29.9 in North 2.6 mph 5 mph 85% 0 in
03:34 70.9 °F 66 °F 29.9 in North 2.4 mph 5.8 mph 85% 0 in
03:39 70.9 °F 66 °F 29.9 in NNE 3 mph 6 mph 85% 0 in
03:44 70.7 °F 66 °F 29.9 in North 3.6 mph 6.2 mph 85% 0 in
03:49 70.7 °F 66.2 °F 29.9 in North 3.6 mph 6 mph 85.5% 0 in
03:54 70.7 °F 66.4 °F 29.9 in NNE 3.6 mph 6 mph 86% 0 in
03:59 70.7 °F 66.2 °F 29.9 in NE 3.2 mph 5.4 mph 86% 0 in
04:04 70.7 °F 66.2 °F 29.9 in North 2.9 mph 5 mph 86% 0 in
04:09 70.7 °F 66.4 °F 29.9 in NNE 2.6 mph 5 mph 86% 0 in
04:14 70.7 °F 66.4 °F 29.9 in NNO 2.4 mph 4.6 mph 86% 0 in
04:19 70.7 °F 66.4 °F 29.9 in NNO 2.4 mph 5.9 mph 86% 0 in
04:24 70.7 °F 66.2 °F 29.9 in North 2.4 mph 6 mph 86% 0 in
04:29 70.5 °F 66 °F 29.9 in NO 2.9 mph 6.2 mph 86% 0 in
04:34 70.5 °F 66 °F 29.9 in NO 3.1 mph 6 mph 86% 0 in
04:39 70.5 °F 66.2 °F 29.9 in NO 3 mph 6 mph 86.1% 0 in
04:44 70.5 °F 66.4 °F 29.9 in NO 2.9 mph 5 mph 86.8% 0 in
04:49 70.5 °F 66.2 °F 29.9 in NO 2.9 mph 5 mph 86.2% 0 in
04:54 70.5 °F 66.6 °F 29.9 in ONO 2.9 mph 5.2 mph 87% 0 in
04:59 70.5 °F 66.6 °F 29.9 in NO 2.5 mph 5.2 mph 87% 0 in
05:04 70.5 °F 66.6 °F 29.9 in NO 2.4 mph 5.8 mph 87% 0 in
05:09 70.5 °F 66.6 °F 29.9 in NO 2.8 mph 6 mph 87% 0 in
05:14 70.5 °F 66.6 °F 29.9 in NO 3.1 mph 5.2 mph 87% 0 in
05:19 70.3 °F 66.4 °F 29.9 in NO 3 mph 5.4 mph 87% 0 in
05:24 70.3 °F 66.4 °F 29.9 in ONO 2.9 mph 6 mph 87% 0 in
05:29 70.3 °F 66.4 °F 29.9 in Oeste 3.3 mph 6.2 mph 87.1% 0 in
05:34 70.3 °F 66.6 °F 29.9 in Oeste 3.6 mph 6.9 mph 87.9% 0 in
05:39 70.3 °F 66.6 °F 29.9 in OSO 3.6 mph 6.2 mph 88% 0 in
05:44 70.3 °F 66.6 °F 29.9 in Oeste 3.6 mph 6.2 mph 88% 0 in
05:49 70.3 °F 66.6 °F 29.9 in Oeste 3.3 mph 6 mph 88% 0 in
05:54 70.3 °F 66.4 °F 29.9 in Oeste 3.1 mph 6.9 mph 87.2% 0 in
05:59 70.5 °F 66.6 °F 29.9 in Oeste 3 mph 7 mph 87% 0 in
06:04 70.5 °F 66.6 °F 29.9 in North 2.9 mph 4.6 mph 87% 0 in
06:09 70.5 °F 66.6 °F 29.9 in NNE 2.4 mph 5 mph 87% 0 in
06:14 70.5 °F 66.6 °F 29.9 in NNE 2 mph 5.4 mph 87% 0 in
06:19 70.5 °F 66.6 °F 29.9 in NE 2.5 mph 6 mph 87% 0 in
06:24 70.3 °F 66.4 °F 29.9 in NNE 2.9 mph 6 mph 87% 0 in
06:29 70.3 °F 66.4 °F 29.9 in North 3.3 mph 6 mph 87% 0 in
06:34 70.3 °F 66.4 °F 29.8 in ONO 3.6 mph 5.9 mph 87% 0 in
06:39 70.3 °F 66.4 °F 29.9 in OSO 3.3 mph 10.7 mph 87% 0 in
06:44 70.3 °F 66.4 °F 29.9 in OSO 3.1 mph 11 mph 87% 0 in
06:49 70.5 °F 66.6 °F 29.9 in SO 4.7 mph 11.5 mph 87% 0 in
06:54 70.7 °F 66.6 °F 29.9 in SO 6.2 mph 12.7 mph 86.7% 0 in
06:59 70.9 °F 66.6 °F 29.9 in SO 6.9 mph 12.7 mph 86% 0 in
07:04 70.7 °F 66.2 °F 29.9 in SO 7.4 mph 12.7 mph 86% 0 in
07:09 70.5 °F 66 °F 29.9 in SO 6.8 mph 13 mph 86% 0 in
07:14 70.5 °F 66.2 °F 29.9 in SO 6.4 mph 9 mph 86% 0 in
07:19 70.5 °F 66 °F 29.9 in OSO 5.5 mph 8 mph 86% 0 in
07:24 70.3 °F 66 °F 29.9 in OSO 4.7 mph 8.1 mph 86% 0 in
07:29 70.3 °F 66 °F 29.9 in SO 5 mph 10.4 mph 86.3% 0 in
07:34 70.3 °F 66.2 °F 29.9 in Sur 5.2 mph 11.5 mph 86.9% 0 in
07:39 70.3 °F 66 °F 29.9 in SO 5.3 mph 12 mph 86% 0 in
07:44 70.5 °F 66 °F 29.9 in Sur 5.4 mph 10 mph 86% 0 in
07:49 70.5 °F 66 °F 29.9 in SSE 5 mph 10.4 mph 86% 0 in
07:54 70.5 °F 66 °F 29.9 in SSE 4.7 mph 10 mph 85.4% 0 in
07:59 70.5 °F 65.8 °F 29.9 in Sur 4 mph 7 mph 85% 0 in
08:04 70.5 °F 65.8 °F 29.9 in SSE 3.6 mph 9.7 mph 85% 0 in
08:09 70.7 °F 66 °F 29.9 in SE 4.5 mph 10 mph 85% 0 in
08:14 70.9 °F 66 °F 29.9 in ESE 5.2 mph 5 mph 85% 0 in
08:19 71.1 °F 66.2 °F 29.9 in SE 3.9 mph 6 mph 84.9% 0 in
08:24 71.1 °F 66 °F 29.9 in Sur 2.9 mph 5 mph 84% 0 in
08:29 71.1 °F 65.8 °F 29.9 in SSO 3 mph 6.9 mph 83.4% 0 in
08:34 71.1 °F 65.7 °F 29.9 in SSE 3.1 mph 7 mph 83% 0 in
08:39 71.2 °F 66 °F 29.9 in Este 3.1 mph 7 mph 83.6% 0 in
08:44 71.4 °F 66 °F 29.9 in Sur 3.1 mph 4.6 mph 83% 0 in
08:49 71.4 °F 66 °F 29.9 in SE 2.7 mph 5 mph 83% 0 in
08:54 71.6 °F 66.2 °F 29.9 in ENE 2.4 mph 5 mph 83% 0 in
08:59 71.8 °F 66.2 °F 29.9 in ENE 2.2 mph 5 mph 82.5% 0 in
09:04 72 °F 66.2 °F 29.9 in Este 2 mph 5 mph 82% 0 in
09:09 72 °F 66 °F 29.9 in Este 2.7 mph 5.8 mph 82% 0 in
09:14 72 °F 66 °F 29.9 in ENE 3.1 mph 6 mph 82% 0 in
09:19 72 °F 66.2 °F 29.9 in NE 3.1 mph 6 mph 82% 0 in
09:24 72 °F 66 °F 29.9 in ENE 3.1 mph 4.7 mph 81.4% 0 in
09:29 72 °F 65.8 °F 29.9 in NE 3 mph 6.2 mph 81% 0 in
09:34 72.1 °F 66 °F 29.9 in NNE 2.9 mph 6.4 mph 81% 0 in
09:39 72.1 °F 66.2 °F 29.9 in NNE 3.7 mph 7.4 mph 81% 0 in
09:44 72.3 °F 66.4 °F 29.9 in NNE 4.3 mph 7 mph 81.6% 0 in
09:49 72.3 °F 66.6 °F 29.9 in NNE 4.1 mph 6 mph 82% 0 in
09:54 72.3 °F 66.6 °F 29.9 in NNE 4 mph 6 mph 82% 0 in
09:59 72.3 °F 66.6 °F 29.9 in NE 3.8 mph 6 mph 82% 0 in
10:04 72.3 °F 66.6 °F 29.9 in NE 3.6 mph 6.9 mph 81.8% 0 in
10:09 72.5 °F 66.2 °F 29.9 in NNE 4 mph 7 mph 80.6% 0 in
10:14 72.9 °F 66 °F 29.9 in NNE 4.3 mph 7 mph 79.2% 0 in
10:19 73 °F 65.8 °F 29.9 in NNE 3.9 mph 6 mph 78.1% 0 in
10:24 73 °F 65.7 °F 29.9 in NNE 3.6 mph 6 mph 77.8% 0 in
10:29 73.2 °F 65.7 °F 29.9 in NE 3.6 mph 6 mph 77% 0 in
10:34 73.2 °F 65.3 °F 29.9 in North 3.6 mph 6 mph 76.1% 0 in
10:39 73.4 °F 65.3 °F 29.9 in NNE 3.3 mph 6 mph 76% 0 in
10:44 73.6 °F 65.5 °F 29.9 in NE 3.1 mph 5.8 mph 75.6% 0 in
10:49 73.8 °F 65.5 °F 29.9 in NNE 3.1 mph 6 mph 75.2% 0 in
10:54 73.9 °F 65.5 °F 29.9 in NNE 3.1 mph 7.4 mph 74.8% 0 in
10:59 74.1 °F 65.3 °F 29.9 in NNE 3.4 mph 7 mph 74% 0 in
11:04 74.5 °F 65.5 °F 29.9 in NNE 3.6 mph 7 mph 74% 0 in
11:09 74.7 °F 65.5 °F 29.9 in ENE 3.7 mph 7.4 mph 73.2% 0 in
11:14 74.7 °F 65.5 °F 29.9 in NNE 4 mph 7 mph 73% 0 in
11:19 74.8 °F 65.7 °F 29.9 in NE 4.1 mph 8.1 mph 73.2% 0 in
11:24 75.2 °F 65.7 °F 29.9 in NNE 4.3 mph 8.1 mph 72.4% 0 in
11:29 75.4 °F 65.5 °F 29.9 in NNE 4.3 mph 9.2 mph 71.5% 0 in
11:34 75.2 °F 65.5 °F 29.9 in NNE 4.3 mph 9 mph 71.6% 0 in
11:39 75.6 °F 65.8 °F 29.9 in NNE 4.2 mph 8 mph 72% 0 in
11:44 75.7 °F 65.8 °F 29.9 in North 4 mph 9.2 mph 71.4% 0 in
11:49 75.9 °F 65.5 °F 29.9 in NNE 3.5 mph 9.2 mph 70% 0 in
11:54 75.7 °F 65.5 °F 29.9 in NO 3.1 mph 9 mph 70.3% 0 in
11:59 75.9 °F 65.3 °F 29.9 in ENE 3.4 mph 9.2 mph 69.7% 0 in
12:04 75.7 °F 65.3 °F 29.9 in NE 3.6 mph 11.5 mph 70% 0 in
12:09 75.7 °F 65.5 °F 29.9 in NE 4.5 mph 12 mph 70.6% 0 in
12:14 75.9 °F 65.8 °F 29.9 in NE 5.4 mph 10 mph 71% 0 in
12:19 76.3 °F 66.2 °F 29.9 in North 5 mph 11.8 mph 71% 0 in
12:24 76.6 °F 66.6 °F 29.9 in North 4.7 mph 12 mph 71% 0 in
12:29 77 °F 66.7 °F 29.9 in NNO 5 mph 10 mph 70.5% 0 in
12:34 77.2 °F 66.6 °F 29.9 in NNE 5.2 mph 11.8 mph 70% 0 in
12:39 77 °F 66.2 °F 29.9 in NNE 5.9 mph 12 mph 69.3% 0 in
12:44 77.2 °F 66.2 °F 29.9 in ENE 6.4 mph 12 mph 69% 0 in
12:49 77.4 °F 66.4 °F 29.9 in NE 5.8 mph 11 mph 69% 0 in
12:54 77.4 °F 66.4 °F 29.9 in NNE 5.4 mph 13.8 mph 69% 0 in
12:59 77.2 °F 66.4 °F 29.9 in NNE 6.6 mph 14 mph 69.6% 0 in
13:04 77.4 °F 66.4 °F 29.9 in NNE 7.4 mph 14 mph 69.2% 0 in
13:09 77.5 °F 66.4 °F 29.9 in NE 6.7 mph 13 mph 68.7% 0 in
13:14 77.5 °F 66 °F 29.9 in NNE 6.2 mph 12.7 mph 68% 0 in
13:19 77.7 °F 66.4 °F 29.9 in NE 6.3 mph 13 mph 68.1% 0 in
13:24 77.9 °F 66.4 °F 29.9 in NNE 6.4 mph 12.5 mph 67.7% 0 in
13:29 78.1 °F 66 °F 29.9 in NE 6.2 mph 13 mph 66.4% 0 in
13:34 78.3 °F 66 °F 29.9 in NNE 5.9 mph 13 mph 66.2% 0 in
13:39 78.3 °F 65.8 °F 29.9 in NE 5.6 mph 11.8 mph 65.7% 0 in
13:44 78.1 °F 65.8 °F 29.9 in NE 5.4 mph 12 mph 66.1% 0 in
13:49 77.9 °F 65.5 °F 29.9 in NE 6 mph 9.7 mph 65.5% 0 in
13:54 77.9 °F 65.7 °F 29.9 in ENE 6.4 mph 10 mph 66% 0 in
13:59 78.3 °F 65.7 °F 29.9 in NE 5.7 mph 11.5 mph 65.3% 0 in
14:04 78.3 °F 66 °F 29.9 in NNE 5.2 mph 12 mph 66% 0 in
14:09 78.4 °F 66.2 °F 29.9 in Este 4.5 mph 8.5 mph 66% 0 in
14:14 79 °F 66.2 °F 29.9 in Este 4 mph 9.2 mph 65.1% 0 in
14:19 79.2 °F 66.4 °F 29.9 in NE 4.7 mph 12.5 mph 65% 0 in
14:24 79 °F 66.4 °F 29.9 in NNE 5.2 mph 13 mph 65.2% 0 in
14:29 78.8 °F 66 °F 29.9 in North 5.9 mph 13 mph 65.1% 0 in
14:34 79 °F 66.4 °F 29.9 in NNE 6.4 mph 10.4 mph 65.8% 0 in
14:39 79.2 °F 66.4 °F 29.9 in NNE 5.5 mph 9 mph 65% 0 in
14:44 79.3 °F 66.6 °F 29.9 in NNE 4.7 mph 8.1 mph 65% 0 in
14:49 79.2 °F 66.4 °F 29.9 in NNE 4.7 mph 9.2 mph 64.9% 0 in
14:54 79 °F 66.2 °F 29.9 in NNE 4.7 mph 13.7 mph 65% 0 in
14:59 78.6 °F 66.2 °F 29.9 in NE 5.7 mph 14 mph 65.4% 0 in
15:04 78.6 °F 65.8 °F 29.9 in NNE 6.2 mph 14 mph 65% 0 in
15:09 78.4 °F 65.8 °F 29.9 in NE 6.9 mph 13.5 mph 65.2% 0 in
15:14 78.4 °F 65.8 °F 29.9 in NE 7.4 mph 15 mph 65% 0 in
15:19 78.4 °F 65.8 °F 29.9 in NE 7.8 mph 15 mph 65.5% 0 in
15:24 78.3 °F 66 °F 29.9 in NE 8.1 mph 14 mph 66% 0 in
15:29 78.3 °F 66.4 °F 29.9 in ENE 8.3 mph 14 mph 67% 0 in
15:34 78.1 °F 66.7 °F 29.9 in NE 8.5 mph 13 mph 68.1% 0 in
15:39 77.7 °F 66.7 °F 29.9 in NNE 7.2 mph 13 mph 68.9% 0 in
15:44 77.5 °F 66.9 °F 29.9 in NE 6.4 mph 11.5 mph 69.8% 0 in
15:49 77.5 °F 67.3 °F 29.9 in Este 7 mph 12 mph 70.5% 0 in
15:54 77.5 °F 67.1 °F 29.9 in NE 7.4 mph 12.7 mph 69.9% 0 in
15:59 77.4 °F 66.9 °F 29.9 in NE 7.1 mph 13 mph 70.1% 0 in
16:04 77.2 °F 67.3 °F 29.9 in ENE 6.9 mph 13 mph 71.5% 0 in
16:09 77.2 °F 67.5 °F 29.9 in ENE 6.5 mph 11.2 mph 72% 0 in
16:14 77 °F 66.9 °F 29.9 in NE 6.2 mph 12 mph 71.1% 0 in
16:19 76.8 °F 66.2 °F 29.9 in NE 6.6 mph 17 mph 69.6% 0 in
16:24 76.8 °F 65.8 °F 29.9 in NE 6.9 mph 17.8 mph 68.7% 0 in
16:29 76.8 °F 66 °F 29.9 in Este 7.9 mph 18 mph 69.2% 0 in
16:34 77 °F 66.2 °F 29.9 in ESE 8.5 mph 10 mph 69.3% 0 in
16:39 76.8 °F 65.8 °F 29.9 in NE 6.6 mph 9.2 mph 68.9% 0 in
16:44 76.8 °F 65.8 °F 29.9 in NE 5.4 mph 14.5 mph 69% 0 in
16:49 76.6 °F 66.2 °F 29.9 in NE 7.6 mph 17.3 mph 70.2% 0 in
16:54 76.6 °F 66.7 °F 29.9 in Este 9.2 mph 17 mph 71.9% 0 in
16:59 76.5 °F 66.7 °F 29.9 in ENE 8.1 mph 12 mph 71.9% 0 in
17:04 76.1 °F 66.6 °F 29.9 in NE 7.4 mph 12 mph 72.3% 0 in
17:09 76.5 °F 67.1 °F 29.9 in NE 6.5 mph 10.4 mph 73.2% 0.02 in
17:14 76.6 °F 67.5 °F 29.9 in NE 5.9 mph 15 mph 73.1% 0.02 in
17:19 76.8 °F 66.7 °F 29.9 in ENE 6.7 mph 15 mph 71% 0.02 in
17:24 76.8 °F 65.8 °F 29.9 in ENE 7.4 mph 14.5 mph 68.9% 0.02 in
17:29 76.8 °F 65.3 °F 29.9 in NE 7.4 mph 15 mph 67.7% 0.02 in
17:34 77 °F 65.7 °F 29.9 in North 7.4 mph 15 mph 68.3% 0.02 in
17:39 77.2 °F 65.7 °F 29.9 in NNE 5.3 mph 9.2 mph 67.7% 0.02 in
17:44 77.4 °F 66 °F 29.9 in NNO 4 mph 9 mph 68% 0.02 in
17:49 77.7 °F 66.7 °F 29.9 in North 4.4 mph 9.2 mph 69% 0.02 in
17:54 77.9 °F 66.4 °F 29.9 in NNE 4.7 mph 9 mph 67.8% 0.02 in
17:59 77.9 °F 66.4 °F 29.9 in NNE 4.5 mph 9.7 mph 67.7% 0.02 in
18:04 77.7 °F 66 °F 29.9 in NNE 4.3 mph 10 mph 67.3% 0.02 in
18:09 77.5 °F 66 °F 29.9 in NNE 4.5 mph 8.5 mph 67.7% 0.02 in
18:14 77.5 °F 65.7 °F 29.9 in NE 4.7 mph 11.8 mph 66.7% 0 in
18:19 77.7 °F 65.3 °F 29.9 in NE 5.7 mph 13.8 mph 65.8% 0 in
18:24 77.7 °F 65.1 °F 29.9 in NE 6.4 mph 14 mph 65.2% 0 in
18:29 77.7 °F 65.1 °F 29.9 in NE 6.7 mph 14 mph 65.1% 0 in
18:34 77.5 °F 65.7 °F 29.9 in NE 6.9 mph 14 mph 66.7% 0 in
18:39 77.4 °F 65.5 °F 29.9 in NE 7.2 mph 14 mph 67% 0 in
18:44 77.2 °F 65.5 °F 29.9 in NE 7.4 mph 15.2 mph 67.3% 0 in
18:49 76.6 °F 65.8 °F 29.9 in NNE 8.4 mph 15 mph 68.9% 0 in
18:54 76.5 °F 65.8 °F 29.9 in NE 9.2 mph 14.5 mph 69.6% 0 in
18:59 76.5 °F 65.8 °F 29.9 in NE 8.9 mph 15 mph 70% 0 in
19:04 76.3 °F 65.8 °F 29.9 in NNE 8.7 mph 15 mph 70% 0 in
19:08 76.3 °F 65.8 °F 29.9 in NNE 8.7 mph 15 mph 70.4% 0 in
19:19 75.7 °F 65.7 °F 29.9 in NE 9.1 mph 12.7 mph 71% 0 in
19:24 75.7 °F 65.7 °F 29.9 in NE 9.2 mph 13 mph 71% 0 in
19:29 75.6 °F 65.8 °F 29.9 in NE 8.5 mph 13 mph 72% 0 in
19:34 75.6 °F 65.8 °F 29.9 in NE 8.1 mph 14 mph 72% 0 in
19:39 75.6 °F 65.8 °F 29.9 in NE 7.8 mph 14 mph 72% 0 in
19:44 75.4 °F 65.7 °F 29.9 in NE 7.6 mph 10 mph 72.1% 0 in
19:49 75.4 °F 66 °F 29.9 in NE 6.8 mph 10.4 mph 73% 0 in
19:54 75.2 °F 66 °F 29.9 in NNE 6.2 mph 10.7 mph 73.4% 0 in
19:59 75 °F 66 °F 29.9 in NNE 6.2 mph 13.8 mph 73.7% 0 in
20:04 75 °F 66.2 °F 29.9 in NE 6.2 mph 15 mph 74% 0 in
20:09 74.8 °F 66.2 °F 29.9 in NE 7.6 mph 15 mph 74.4% 0 in
20:14 74.8 °F 66.4 °F 29.9 in NE 8.5 mph 13.8 mph 75% 0 in
20:19 74.7 °F 66.2 °F 29.9 in NNE 8 mph 14 mph 75% 0 in
20:24 74.7 °F 66.4 °F 29.9 in NE 7.6 mph 10.4 mph 75.7% 0 in
20:29 74.5 °F 66.4 °F 29.9 in NE 6.8 mph 10.7 mph 76% 0 in
20:34 74.3 °F 66.6 °F 29.9 in NE 6.2 mph 11 mph 76.5% 0 in
20:39 74.3 °F 66.6 °F 29.9 in NE 6.3 mph 10 mph 77% 0 in
20:44 74.1 °F 66.4 °F 29.9 in NNE 6.4 mph 9 mph 77% 0 in
20:49 74.1 °F 66.6 °F 29.9 in NE 6.1 mph 8.1 mph 77% 0 in
20:54 74.3 °F 66.6 °F 29.9 in NE 5.9 mph 8.1 mph 77% 0 in
20:59 74.3 °F 66.6 °F 29.9 in NE 5 mph 10.2 mph 77% 0 in
21:04 74.3 °F 66.6 °F 29.9 in NE 4.3 mph 10.4 mph 77% 0 in
21:09 74.3 °F 66.6 °F 29.9 in NE 4.8 mph 10 mph 77% 0 in
21:14 74.3 °F 66.6 °F 29.9 in NE 5.2 mph 7.4 mph 77% 0 in
21:19 74.3 °F 66.6 °F 29.9 in NE 4.9 mph 9.2 mph 77% 0 in
21:24 74.3 °F 66.6 °F 29.9 in NE 4.7 mph 9 mph 77% 0 in
21:29 74.3 °F 66.6 °F 29.9 in NE 4.7 mph 10.4 mph 77% 0 in
21:34 74.1 °F 66.6 °F 29.9 in NE 4.7 mph 10 mph 77.6% 0 in
21:39 74.1 °F 66.7 °F 29.9 in ENE 5.1 mph 11.2 mph 78% 0 in
21:44 73.9 °F 66.6 °F 29.9 in Este 5.4 mph 12 mph 77.7% 0 in
21:49 73.9 °F 66.2 °F 29.9 in ESE 5 mph 9 mph 76.9% 0 in
21:54 73.9 °F 65.8 °F 29.9 in Este 4.7 mph 9.7 mph 76% 0 in
21:59 73.9 °F 66 °F 29.9 in ESE 4.5 mph 10 mph 76% 0 in
22:04 73.9 °F 65.5 °F 29.9 in Este 4.3 mph 10.2 mph 75.1% 0 in
22:09 73.8 °F 65.3 °F 29.9 in ENE 4.5 mph 10.4 mph 75% 0 in
22:14 73.8 °F 65.3 °F 29.9 in NE 4.7 mph 10.2 mph 75.3% 0 in
22:19 73.4 °F 65.5 °F 29.9 in NE 5.3 mph 10.4 mph 76.2% 0 in
22:24 73 °F 65.5 °F 29.9 in NE 5.9 mph 10 mph 77% 0 in
22:29 73 °F 65.7 °F 29.9 in ENE 5.6 mph 10 mph 77.7% 0 in
22:34 72.9 °F 65.5 °F 29.9 in NE 5.4 mph 8.1 mph 77.9% 0 in
22:39 72.7 °F 65.5 °F 29.9 in NE 5 mph 9.2 mph 78% 0 in
22:44 72.5 °F 65.3 °F 29.9 in NE 4.7 mph 9 mph 78.2% 0 in
22:49 72.3 °F 65.5 °F 29.9 in NE 4.7 mph 8.1 mph 79% 0 in
22:54 72.1 °F 65.5 °F 29.9 in NE 4.7 mph 8 mph 79.1% 0 in
22:59 72.1 °F 65.7 °F 29.9 in ENE 4.5 mph 7 mph 80% 0 in
23:04 72.1 °F 65.7 °F 29.9 in NNE 4.3 mph 7 mph 80% 0 in
23:09 72 °F 65.5 °F 29.9 in NNE 4.3 mph 8.1 mph 80% 0 in
23:14 71.8 °F 65.7 °F 29.9 in NNE 4.3 mph 8.5 mph 80.9% 0 in
23:19 71.8 °F 65.7 °F 29.9 in NE 4.3 mph 9 mph 81% 0 in
23:24 71.6 °F 65.7 °F 29.9 in NE 4.3 mph 8.1 mph 81.6% 0 in
23:29 71.4 °F 65.7 °F 29.9 in NE 4.5 mph 8.1 mph 82% 0 in
23:34 71.4 °F 65.8 °F 29.9 in NE 4.7 mph 8 mph 82.5% 0 in
23:39 71.2 °F 65.8 °F 29.9 in NE 4.7 mph 8.1 mph 83% 0 in
23:44 71.2 °F 65.7 °F 29.9 in NNE 4.7 mph 9.7 mph 83% 0 in
23:49 71.1 °F 65.8 °F 29.9 in NE 5 mph 10 mph 83.7% 0 in
23:54 71.1 °F 66 °F 29.9 in NE 5.2 mph 8.1 mph 84% 0 in
23:59 70.9 °F 65.8 °F 29.9 in NNE 4.2 mph 8 mph 84% 0 in
Murcia-Puente Tocinos, España
Compliments of Weather Underground - 3.5 mb

La estación de MeteoMurcia.com, publica sus datos en los siguientes proyectos:

Weather Underground PWS IMURCIAP2 Meteoclimatic www.awekas.at

W3Counter
Web Analytics